sensor_id;sensor_type;location;lat;lon;timestamp;P1;durP1;ratioP1;P2;durP2;ratioP2
49103;SDS011;34915;52.926;11.116;2022-10-12T00:00:56;1.60;;;0.80;;
49103;SDS011;34915;52.926;11.116;2022-10-12T00:03:22;1.93;;;0.90;;
49103;SDS011;34915;52.926;11.116;2022-10-12T00:05:58;1.70;;;0.83;;
49103;SDS011;34915;52.926;11.116;2022-10-12T00:08:32;2.73;;;0.87;;
49103;SDS011;34915;52.926;11.116;2022-10-12T00:11:03;3.00;;;0.90;;
49103;SDS011;34915;52.926;11.116;2022-10-12T00:13:29;4.77;;;0.80;;
49103;SDS011;34915;52.926;11.116;2022-10-12T00:15:56;2.97;;;1.20;;
49103;SDS011;34915;52.926;11.116;2022-10-12T00:18:25;1.33;;;1.00;;
49103;SDS011;34915;52.926;11.116;2022-10-12T00:21:01;2.97;;;0.80;;
49103;SDS011;34915;52.926;11.116;2022-10-12T00:23:40;1.57;;;1.00;;
49103;SDS011;34915;52.926;11.116;2022-10-12T00:26:07;2.10;;;0.87;;
49103;SDS011;34915;52.926;11.116;2022-10-12T00:28:36;3.37;;;1.17;;
49103;SDS011;34915;52.926;11.116;2022-10-12T00:31:05;6.23;;;1.20;;
49103;SDS011;34915;52.926;11.116;2022-10-12T00:33:35;3.53;;;1.13;;
49103;SDS011;34915;52.926;11.116;2022-10-12T00:36:15;2.60;;;0.90;;
49103;SDS011;34915;52.926;11.116;2022-10-12T00:38:44;2.30;;;0.70;;
49103;SDS011;34915;52.926;11.116;2022-10-12T00:41:11;1.33;;;0.80;;
49103;SDS011;34915;52.926;11.116;2022-10-12T00:43:41;7.07;;;1.10;;
49103;SDS011;34915;52.926;11.116;2022-10-12T00:46:28;2.60;;;0.97;;
49103;SDS011;34915;52.926;11.116;2022-10-12T00:51:45;1.90;;;0.63;;
49103;SDS011;34915;52.926;11.116;2022-10-12T00:54:15;2.27;;;1.10;;
49103;SDS011;34915;52.926;11.116;2022-10-12T00:56:49;8.43;;;1.03;;
49103;SDS011;34915;52.926;11.116;2022-10-12T00:59:19;3.73;;;1.20;;
49103;SDS011;34915;52.926;11.116;2022-10-12T01:01:47;0.97;;;0.73;;
49103;SDS011;34915;52.926;11.116;2022-10-12T01:04:14;0.50;;;0.50;;
49103;SDS011;34915;52.926;11.116;2022-10-12T01:06:42;5.03;;;1.10;;
49103;SDS011;34915;52.926;11.116;2022-10-12T01:09:08;3.70;;;0.80;;
49103;SDS011;34915;52.926;11.116;2022-10-12T01:11:33;3.77;;;1.00;;
49103;SDS011;34915;52.926;11.116;2022-10-12T01:14:02;2.10;;;1.27;;
49103;SDS011;34915;52.926;11.116;2022-10-12T01:16:29;2.63;;;0.90;;
49103;SDS011;34915;52.926;11.116;2022-10-12T01:19:16;1.07;;;0.70;;
49103;SDS011;34915;52.926;11.116;2022-10-12T01:21:59;2.50;;;1.10;;
49103;SDS011;34915;52.926;11.116;2022-10-12T01:40:53;2.67;;;1.27;;
49103;SDS011;34915;52.926;11.116;2022-10-12T01:43:37;2.00;;;0.70;;
49103;SDS011;34915;52.926;11.116;2022-10-12T01:48:40;2.57;;;0.93;;
49103;SDS011;34915;52.926;11.116;2022-10-12T01:51:10;2.63;;;0.83;;
49103;SDS011;34915;52.926;11.116;2022-10-12T01:58:56;4.53;;;1.47;;
49103;SDS011;34915;52.926;11.116;2022-10-12T02:01:33;2.80;;;0.90;;
49103;SDS011;34915;52.926;11.116;2022-10-12T02:06:58;2.30;;;1.13;;
49103;SDS011;34915;52.926;11.116;2022-10-12T02:09:29;1.97;;;1.03;;
49103;SDS011;34915;52.926;11.116;2022-10-12T02:12:32;15.17;;;1.40;;
49103;SDS011;34915;52.926;11.116;2022-10-12T02:14:53;1.80;;;0.90;;
49103;SDS011;34915;52.926;11.116;2022-10-12T02:17:23;1.67;;;0.70;;
49103;SDS011;34915;52.926;11.116;2022-10-12T02:19:53;1.23;;;0.87;;
49103;SDS011;34915;52.926;11.116;2022-10-12T02:22:22;2.93;;;0.80;;
49103;SDS011;34915;52.926;11.116;2022-10-12T02:24:50;2.23;;;1.40;;
49103;SDS011;34915;52.926;11.116;2022-10-12T02:27:19;3.73;;;1.00;;
49103;SDS011;34915;52.926;11.116;2022-10-12T02:29:49;2.17;;;1.07;;
49103;SDS011;34915;52.926;11.116;2022-10-12T02:35:14;2.60;;;1.30;;
49103;SDS011;34915;52.926;11.116;2022-10-12T02:37:55;3.50;;;1.30;;
49103;SDS011;34915;52.926;11.116;2022-10-12T02:40:36;1.23;;;0.67;;
49103;SDS011;34915;52.926;11.116;2022-10-12T02:43:20;2.67;;;1.00;;
49103;SDS011;34915;52.926;11.116;2022-10-12T02:45:47;1.80;;;0.97;;
49103;SDS011;34915;52.926;11.116;2022-10-12T02:48:15;3.20;;;0.90;;
49103;SDS011;34915;52.926;11.116;2022-10-12T02:50:45;3.07;;;1.00;;
49103;SDS011;34915;52.926;11.116;2022-10-12T02:53:11;0.57;;;0.57;;
49103;SDS011;34915;52.926;11.116;2022-10-12T02:55:38;2.37;;;0.80;;
49103;SDS011;34915;52.926;11.116;2022-10-12T02:58:14;2.10;;;1.10;;
49103;SDS011;34915;52.926;11.116;2022-10-12T03:00:40;2.27;;;1.13;;
49103;SDS011;34915;52.926;11.116;2022-10-12T03:03:06;2.13;;;1.00;;
49103;SDS011;34915;52.926;11.116;2022-10-12T03:05:31;3.47;;;0.90;;
49103;SDS011;34915;52.926;11.116;2022-10-12T03:07:57;1.27;;;0.90;;
49103;SDS011;34915;52.926;11.116;2022-10-12T03:10:23;3.37;;;1.10;;
49103;SDS011;34915;52.926;11.116;2022-10-12T03:12:48;7.10;;;1.03;;
49103;SDS011;34915;52.926;11.116;2022-10-12T03:15:17;4.13;;;1.40;;
49103;SDS011;34915;52.926;11.116;2022-10-12T03:17:45;4.23;;;0.97;;
49103;SDS011;34915;52.926;11.116;2022-10-12T03:20:11;2.90;;;0.90;;
49103;SDS011;34915;52.926;11.116;2022-10-12T03:22:36;2.13;;;0.70;;
49103;SDS011;34915;52.926;11.116;2022-10-12T03:25:02;1.30;;;0.60;;
49103;SDS011;34915;52.926;11.116;2022-10-12T03:27:28;3.80;;;1.17;;
49103;SDS011;34915;52.926;11.116;2022-10-12T03:29:53;4.03;;;1.10;;
49103;SDS011;34915;52.926;11.116;2022-10-12T03:32:19;1.87;;;0.77;;
49103;SDS011;34915;52.926;11.116;2022-10-12T03:34:44;3.00;;;0.70;;
49103;SDS011;34915;52.926;11.116;2022-10-12T03:37:11;2.67;;;0.97;;
49103;SDS011;34915;52.926;11.116;2022-10-12T03:39:39;2.40;;;0.93;;
49103;SDS011;34915;52.926;11.116;2022-10-12T03:42:05;4.43;;;1.27;;
49103;SDS011;34915;52.926;11.116;2022-10-12T03:44:30;1.50;;;0.77;;
49103;SDS011;34915;52.926;11.116;2022-10-12T03:46:56;4.70;;;0.90;;
49103;SDS011;34915;52.926;11.116;2022-10-12T03:49:21;4.73;;;1.20;;
49103;SDS011;34915;52.926;11.116;2022-10-12T03:51:47;0.80;;;0.80;;
49103;SDS011;34915;52.926;11.116;2022-10-12T03:54:12;1.40;;;0.83;;
49103;SDS011;34915;52.926;11.116;2022-10-12T03:56:38;2.10;;;0.70;;
49103;SDS011;34915;52.926;11.116;2022-10-12T03:59:04;3.77;;;0.90;;
49103;SDS011;34915;52.926;11.116;2022-10-12T04:01:30;1.50;;;0.70;;
49103;SDS011;34915;52.926;11.116;2022-10-12T04:03:56;4.57;;;0.97;;
49103;SDS011;34915;52.926;11.116;2022-10-12T04:06:22;1.57;;;1.03;;
49103;SDS011;34915;52.926;11.116;2022-10-12T04:08:50;1.67;;;1.00;;
49103;SDS011;34915;52.926;11.116;2022-10-12T04:11:19;3.87;;;0.90;;
49103;SDS011;34915;52.926;11.116;2022-10-12T04:13:44;1.77;;;1.03;;
49103;SDS011;34915;52.926;11.116;2022-10-12T04:16:10;6.50;;;1.20;;
49103;SDS011;34915;52.926;11.116;2022-10-12T04:18:36;1.53;;;1.00;;
49103;SDS011;34915;52.926;11.116;2022-10-12T04:21:02;2.90;;;1.13;;
49103;SDS011;34915;52.926;11.116;2022-10-12T04:23:36;1.20;;;0.90;;
49103;SDS011;34915;52.926;11.116;2022-10-12T04:26:01;0.73;;;0.63;;
49103;SDS011;34915;52.926;11.116;2022-10-12T04:28:27;4.43;;;1.23;;
49103;SDS011;34915;52.926;11.116;2022-10-12T04:30:56;1.60;;;1.07;;
49103;SDS011;34915;52.926;11.116;2022-10-12T04:33:21;4.20;;;1.00;;
49103;SDS011;34915;52.926;11.116;2022-10-12T04:35:50;1.90;;;0.83;;
49103;SDS011;34915;52.926;11.116;2022-10-12T04:38:15;1.40;;;1.03;;
49103;SDS011;34915;52.926;11.116;2022-10-12T04:40:44;1.03;;;0.90;;
49103;SDS011;34915;52.926;11.116;2022-10-12T04:43:11;4.17;;;1.30;;
49103;SDS011;34915;52.926;11.116;2022-10-12T04:45:36;4.07;;;0.93;;
49103;SDS011;34915;52.926;11.116;2022-10-12T04:48:05;3.00;;;1.13;;
49103;SDS011;34915;52.926;11.116;2022-10-12T04:50:30;2.33;;;1.07;;
49103;SDS011;34915;52.926;11.116;2022-10-12T04:52:56;1.60;;;1.17;;
49103;SDS011;34915;52.926;11.116;2022-10-12T04:55:25;2.83;;;0.83;;
49103;SDS011;34915;52.926;11.116;2022-10-12T04:57:51;2.57;;;1.33;;
49103;SDS011;34915;52.926;11.116;2022-10-12T05:00:17;2.47;;;1.63;;
49103;SDS011;34915;52.926;11.116;2022-10-12T05:02:43;3.40;;;1.43;;
49103;SDS011;34915;52.926;11.116;2022-10-12T05:05:08;5.87;;;0.90;;
49103;SDS011;34915;52.926;11.116;2022-10-12T05:07:34;3.10;;;1.10;;
49103;SDS011;34915;52.926;11.116;2022-10-12T05:10:00;4.43;;;1.30;;
49103;SDS011;34915;52.926;11.116;2022-10-12T05:12:25;2.40;;;1.13;;
49103;SDS011;34915;52.926;11.116;2022-10-12T05:14:54;2.20;;;1.10;;
49103;SDS011;34915;52.926;11.116;2022-10-12T05:17:20;1.90;;;1.13;;
49103;SDS011;34915;52.926;11.116;2022-10-12T05:19:45;1.17;;;1.00;;
49103;SDS011;34915;52.926;11.116;2022-10-12T05:22:11;3.93;;;1.73;;
49103;SDS011;34915;52.926;11.116;2022-10-12T05:24:36;1.93;;;1.30;;
49103;SDS011;34915;52.926;11.116;2022-10-12T05:27:05;4.93;;;1.80;;
49103;SDS011;34915;52.926;11.116;2022-10-12T05:29:34;3.43;;;1.30;;
49103;SDS011;34915;52.926;11.116;2022-10-12T05:31:59;2.00;;;1.40;;
49103;SDS011;34915;52.926;11.116;2022-10-12T05:34:25;4.87;;;1.47;;
49103;SDS011;34915;52.926;11.116;2022-10-12T05:36:50;1.63;;;1.23;;
49103;SDS011;34915;52.926;11.116;2022-10-12T05:39:19;1.70;;;1.30;;
49103;SDS011;34915;52.926;11.116;2022-10-12T05:41:45;3.63;;;1.63;;
49103;SDS011;34915;52.926;11.116;2022-10-12T05:44:10;2.27;;;1.60;;
49103;SDS011;34915;52.926;11.116;2022-10-12T05:46:36;2.73;;;1.80;;
49103;SDS011;34915;52.926;11.116;2022-10-12T05:49:06;3.03;;;2.10;;
49103;SDS011;34915;52.926;11.116;2022-10-12T05:51:32;2.90;;;1.40;;
49103;SDS011;34915;52.926;11.116;2022-10-12T05:54:00;5.70;;;1.63;;
49103;SDS011;34915;52.926;11.116;2022-10-12T05:56:28;4.60;;;2.83;;
49103;SDS011;34915;52.926;11.116;2022-10-12T05:58:54;1.83;;;1.60;;
49103;SDS011;34915;52.926;11.116;2022-10-12T06:01:19;2.23;;;1.50;;
49103;SDS011;34915;52.926;11.116;2022-10-12T06:03:45;3.63;;;1.60;;
49103;SDS011;34915;52.926;11.116;2022-10-12T06:06:11;2.50;;;1.50;;
49103;SDS011;34915;52.926;11.116;2022-10-12T06:08:36;2.73;;;1.63;;
49103;SDS011;34915;52.926;11.116;2022-10-12T06:11:02;3.03;;;1.87;;
49103;SDS011;34915;52.926;11.116;2022-10-12T06:13:28;1.80;;;1.70;;
49103;SDS011;34915;52.926;11.116;2022-10-12T06:15:53;4.37;;;1.37;;
49103;SDS011;34915;52.926;11.116;2022-10-12T06:18:20;2.90;;;1.17;;
49103;SDS011;34915;52.926;11.116;2022-10-12T06:20:49;2.97;;;1.10;;
49103;SDS011;34915;52.926;11.116;2022-10-12T06:23:17;1.77;;;1.67;;
49103;SDS011;34915;52.926;11.116;2022-10-12T06:25:47;2.83;;;1.23;;
49103;SDS011;34915;52.926;11.116;2022-10-12T06:28:14;2.57;;;1.00;;
49103;SDS011;34915;52.926;11.116;2022-10-12T06:30:41;5.43;;;1.37;;
49103;SDS011;34915;52.926;11.116;2022-10-12T06:33:10;1.90;;;1.10;;
49103;SDS011;34915;52.926;11.116;2022-10-12T06:35:36;1.07;;;1.00;;
49103;SDS011;34915;52.926;11.116;2022-10-12T06:38:02;1.03;;;0.93;;
49103;SDS011;34915;52.926;11.116;2022-10-12T06:40:28;1.23;;;0.97;;
49103;SDS011;34915;52.926;11.116;2022-10-12T06:42:54;2.97;;;1.57;;
49103;SDS011;34915;52.926;11.116;2022-10-12T06:45:19;2.50;;;1.60;;
49103;SDS011;34915;52.926;11.116;2022-10-12T06:47:48;2.27;;;1.40;;
49103;SDS011;34915;52.926;11.116;2022-10-12T06:50:14;2.67;;;1.50;;
49103;SDS011;34915;52.926;11.116;2022-10-12T06:52:39;2.43;;;1.13;;
49103;SDS011;34915;52.926;11.116;2022-10-12T06:55:08;1.80;;;1.23;;
49103;SDS011;34915;52.926;11.116;2022-10-12T06:57:37;3.23;;;1.50;;
49103;SDS011;34915;52.926;11.116;2022-10-12T07:00:03;2.50;;;1.27;;
49103;SDS011;34915;52.926;11.116;2022-10-12T07:02:31;3.47;;;1.83;;
49103;SDS011;34915;52.926;11.116;2022-10-12T07:05:00;4.47;;;1.73;;
49103;SDS011;34915;52.926;11.116;2022-10-12T07:07:28;6.43;;;1.70;;
49103;SDS011;34915;52.926;11.116;2022-10-12T07:09:57;7.10;;;1.90;;
49103;SDS011;34915;52.926;11.116;2022-10-12T07:12:24;3.87;;;1.60;;
49103;SDS011;34915;52.926;11.116;2022-10-12T07:14:53;3.83;;;1.13;;
49103;SDS011;34915;52.926;11.116;2022-10-12T07:17:22;2.17;;;1.43;;
49103;SDS011;34915;52.926;11.116;2022-10-12T07:19:48;6.93;;;1.90;;
49103;SDS011;34915;52.926;11.116;2022-10-12T07:22:16;1.50;;;1.33;;
49103;SDS011;34915;52.926;11.116;2022-10-12T07:24:42;6.03;;;1.50;;
49103;SDS011;34915;52.926;11.116;2022-10-12T07:27:08;1.90;;;1.43;;
49103;SDS011;34915;52.926;11.116;2022-10-12T07:29:38;4.27;;;1.60;;
49103;SDS011;34915;52.926;11.116;2022-10-12T07:32:06;5.77;;;1.33;;
49103;SDS011;34915;52.926;11.116;2022-10-12T07:34:32;2.03;;;1.63;;
49103;SDS011;34915;52.926;11.116;2022-10-12T07:36:58;1.87;;;1.50;;
49103;SDS011;34915;52.926;11.116;2022-10-12T07:39:24;3.23;;;2.27;;
49103;SDS011;34915;52.926;11.116;2022-10-12T07:41:50;2.37;;;1.40;;
49103;SDS011;34915;52.926;11.116;2022-10-12T07:44:16;3.47;;;1.70;;
49103;SDS011;34915;52.926;11.116;2022-10-12T07:46:43;10.73;;;1.87;;
49103;SDS011;34915;52.926;11.116;2022-10-12T07:49:10;2.23;;;1.47;;
49103;SDS011;34915;52.926;11.116;2022-10-12T07:51:36;3.70;;;2.07;;
49103;SDS011;34915;52.926;11.116;2022-10-12T07:54:02;3.37;;;1.60;;
49103;SDS011;34915;52.926;11.116;2022-10-12T07:56:28;4.27;;;1.73;;
49103;SDS011;34915;52.926;11.116;2022-10-12T07:58:54;7.23;;;1.63;;
49103;SDS011;34915;52.926;11.116;2022-10-12T08:01:22;2.17;;;1.70;;
49103;SDS011;34915;52.926;11.116;2022-10-12T08:03:49;1.77;;;1.30;;
49103;SDS011;34915;52.926;11.116;2022-10-12T08:06:16;5.80;;;2.00;;
49103;SDS011;34915;52.926;11.116;2022-10-12T08:08:44;1.23;;;1.13;;
49103;SDS011;34915;52.926;11.116;2022-10-12T08:11:14;3.73;;;2.00;;
49103;SDS011;34915;52.926;11.116;2022-10-12T08:13:40;3.03;;;1.27;;
49103;SDS011;34915;52.926;11.116;2022-10-12T08:16:08;5.63;;;1.77;;
49103;SDS011;34915;52.926;11.116;2022-10-12T08:18:35;4.50;;;1.30;;
49103;SDS011;34915;52.926;11.116;2022-10-12T08:21:02;3.07;;;1.70;;
49103;SDS011;34915;52.926;11.116;2022-10-12T08:23:29;2.13;;;1.67;;
49103;SDS011;34915;52.926;11.116;2022-10-12T08:25:55;5.87;;;2.13;;
49103;SDS011;34915;52.926;11.116;2022-10-12T08:28:22;2.77;;;1.63;;
49103;SDS011;34915;52.926;11.116;2022-10-12T08:30:48;2.17;;;0.97;;
49103;SDS011;34915;52.926;11.116;2022-10-12T08:33:14;2.77;;;1.77;;
49103;SDS011;34915;52.926;11.116;2022-10-12T08:35:41;5.07;;;2.50;;
49103;SDS011;34915;52.926;11.116;2022-10-12T08:38:10;3.90;;;2.50;;
49103;SDS011;34915;52.926;11.116;2022-10-12T08:46:17;2.97;;;1.50;;
49103;SDS011;34915;52.926;11.116;2022-10-12T08:49:00;1.50;;;1.10;;
49103;SDS011;34915;52.926;11.116;2022-10-12T08:51:32;2.63;;;1.13;;
49103;SDS011;34915;52.926;11.116;2022-10-12T08:54:05;4.57;;;1.20;;
49103;SDS011;34915;52.926;11.116;2022-10-12T08:56:35;2.63;;;1.07;;
49103;SDS011;34915;52.926;11.116;2022-10-12T08:59:13;6.93;;;1.73;;
49103;SDS011;34915;52.926;11.116;2022-10-12T09:15:56;2.20;;;1.03;;
49103;SDS011;34915;52.926;11.116;2022-10-12T09:18:37;4.87;;;1.43;;
49103;SDS011;34915;52.926;11.116;2022-10-12T09:21:05;3.73;;;1.23;;
49103;SDS011;34915;52.926;11.116;2022-10-12T09:23:39;2.77;;;0.73;;
49103;SDS011;34915;52.926;11.116;2022-10-12T09:26:13;2.33;;;0.90;;
49103;SDS011;34915;52.926;11.116;2022-10-12T09:28:43;0.97;;;0.80;;
49103;SDS011;34915;52.926;11.116;2022-10-12T09:34:22;1.70;;;0.90;;
49103;SDS011;34915;52.926;11.116;2022-10-12T09:36:48;2.07;;;0.97;;
49103;SDS011;34915;52.926;11.116;2022-10-12T09:39:18;3.30;;;0.80;;
49103;SDS011;34915;52.926;11.116;2022-10-12T09:41:48;3.53;;;1.10;;
49103;SDS011;34915;52.926;11.116;2022-10-12T09:44:25;3.67;;;1.40;;
49103;SDS011;34915;52.926;11.116;2022-10-12T09:49:49;2.63;;;1.10;;
49103;SDS011;34915;52.926;11.116;2022-10-12T09:52:20;2.67;;;1.07;;
49103;SDS011;34915;52.926;11.116;2022-10-12T09:54:53;2.70;;;0.80;;
49103;SDS011;34915;52.926;11.116;2022-10-12T09:57:35;2.33;;;1.00;;
49103;SDS011;34915;52.926;11.116;2022-10-12T10:00:04;2.17;;;0.80;;
49103;SDS011;34915;52.926;11.116;2022-10-12T10:02:47;2.57;;;0.90;;
49103;SDS011;34915;52.926;11.116;2022-10-12T10:05:35;4.87;;;1.10;;
49103;SDS011;34915;52.926;11.116;2022-10-12T10:11:00;2.80;;;0.60;;
49103;SDS011;34915;52.926;11.116;2022-10-12T10:13:29;1.43;;;0.70;;
49103;SDS011;34915;52.926;11.116;2022-10-12T10:16:03;1.00;;;0.63;;
49103;SDS011;34915;52.926;11.116;2022-10-12T10:18:39;1.60;;;0.50;;
49103;SDS011;34915;52.926;11.116;2022-10-12T10:21:09;2.57;;;0.70;;
49103;SDS011;34915;52.926;11.116;2022-10-12T10:23:50;2.43;;;0.70;;
49103;SDS011;34915;52.926;11.116;2022-10-12T10:26:24;1.43;;;0.80;;
49103;SDS011;34915;52.926;11.116;2022-10-12T10:28:56;1.30;;;0.87;;
49103;SDS011;34915;52.926;11.116;2022-10-12T10:31:46;1.73;;;0.60;;
49103;SDS011;34915;52.926;11.116;2022-10-12T10:34:23;2.07;;;0.80;;
49103;SDS011;34915;52.926;11.116;2022-10-12T10:36:51;4.17;;;0.83;;
49103;SDS011;34915;52.926;11.116;2022-10-12T10:39:31;1.10;;;0.60;;
49103;SDS011;34915;52.926;11.116;2022-10-12T10:42:09;1.30;;;0.40;;
49103;SDS011;34915;52.926;11.116;2022-10-12T10:44:39;0.83;;;0.57;;
49103;SDS011;34915;52.926;11.116;2022-10-12T10:47:13;1.20;;;0.40;;
49103;SDS011;34915;52.926;11.116;2022-10-12T10:49:44;3.13;;;0.70;;
49103;SDS011;34915;52.926;11.116;2022-10-12T10:57:38;1.53;;;0.80;;
49103;SDS011;34915;52.926;11.116;2022-10-12T11:00:13;0.87;;;0.40;;
49103;SDS011;34915;52.926;11.116;2022-10-12T11:02:51;1.20;;;0.70;;
49103;SDS011;34915;52.926;11.116;2022-10-12T11:07:55;2.43;;;0.70;;
49103;SDS011;34915;52.926;11.116;2022-10-12T11:10:26;0.63;;;0.43;;
49103;SDS011;34915;52.926;11.116;2022-10-12T11:12:58;1.97;;;0.80;;
49103;SDS011;34915;52.926;11.116;2022-10-12T11:15:39;2.47;;;0.63;;
49103;SDS011;34915;52.926;11.116;2022-10-12T11:18:29;1.33;;;0.90;;
49103;SDS011;34915;52.926;11.116;2022-10-12T11:21:06;2.37;;;0.83;;
49103;SDS011;34915;52.926;11.116;2022-10-12T11:26:35;3.80;;;0.77;;
49103;SDS011;34915;52.926;11.116;2022-10-12T11:29:07;0.90;;;0.47;;
49103;SDS011;34915;52.926;11.116;2022-10-12T11:31:40;4.70;;;0.50;;
49103;SDS011;34915;52.926;11.116;2022-10-12T11:34:14;2.03;;;0.60;;
49103;SDS011;34915;52.926;11.116;2022-10-12T11:36:44;1.83;;;0.73;;
49103;SDS011;34915;52.926;11.116;2022-10-12T11:42:24;3.17;;;0.70;;
49103;SDS011;34915;52.926;11.116;2022-10-12T11:45:03;3.03;;;0.57;;
49103;SDS011;34915;52.926;11.116;2022-10-12T11:47:38;1.90;;;0.70;;
49103;SDS011;34915;52.926;11.116;2022-10-12T11:52:53;2.10;;;0.50;;
49103;SDS011;34915;52.926;11.116;2022-10-12T11:58:21;2.17;;;0.50;;
49103;SDS011;34915;52.926;11.116;2022-10-12T12:08:57;1.13;;;0.60;;
49103;SDS011;34915;52.926;11.116;2022-10-12T12:11:42;2.60;;;0.60;;
49103;SDS011;34915;52.926;11.116;2022-10-12T12:16:49;0.33;;;0.33;;
49103;SDS011;34915;52.926;11.116;2022-10-12T12:24:56;1.73;;;0.63;;
49103;SDS011;34915;52.926;11.116;2022-10-12T12:29:58;2.67;;;0.93;;
49103;SDS011;34915;52.926;11.116;2022-10-12T12:32:39;1.07;;;0.70;;
49103;SDS011;34915;52.926;11.116;2022-10-12T12:38:03;1.97;;;0.50;;
49103;SDS011;34915;52.926;11.116;2022-10-12T12:40:33;2.03;;;1.10;;
49103;SDS011;34915;52.926;11.116;2022-10-12T12:45:59;2.47;;;0.87;;
49103;SDS011;34915;52.926;11.116;2022-10-12T12:49:22;1.27;;;0.70;;
49103;SDS011;34915;52.926;11.116;2022-10-12T12:51:22;1.00;;;0.50;;
49103;SDS011;34915;52.926;11.116;2022-10-12T12:59:34;0.80;;;0.60;;
49103;SDS011;34915;52.926;11.116;2022-10-12T13:10:25;1.87;;;1.60;;
49103;SDS011;34915;52.926;11.116;2022-10-12T13:16:00;1.40;;;0.57;;
49103;SDS011;34915;52.926;11.116;2022-10-12T13:21:03;1.60;;;0.57;;
49103;SDS011;34915;52.926;11.116;2022-10-12T13:23:32;1.23;;;0.60;;
49103;SDS011;34915;52.926;11.116;2022-10-12T13:26:04;2.20;;;0.80;;
49103;SDS011;34915;52.926;11.116;2022-10-12T13:28:36;0.37;;;0.30;;
49103;SDS011;34915;52.926;11.116;2022-10-12T13:31:20;2.63;;;0.97;;
49103;SDS011;34915;52.926;11.116;2022-10-12T13:33:59;7.00;;;3.63;;
49103;SDS011;34915;52.926;11.116;2022-10-12T13:36:35;3.70;;;0.80;;
49103;SDS011;34915;52.926;11.116;2022-10-12T13:39:14;2.23;;;0.50;;
49103;SDS011;34915;52.926;11.116;2022-10-12T13:41:42;2.40;;;0.63;;
49103;SDS011;34915;52.926;11.116;2022-10-12T13:44:25;1.10;;;0.77;;
49103;SDS011;34915;52.926;11.116;2022-10-12T13:46:54;0.70;;;0.70;;
49103;SDS011;34915;52.926;11.116;2022-10-12T13:54:39;1.60;;;0.43;;
49103;SDS011;34915;52.926;11.116;2022-10-12T14:02:56;0.70;;;0.50;;
49103;SDS011;34915;52.926;11.116;2022-10-12T14:05:25;2.03;;;0.40;;
49103;SDS011;34915;52.926;11.116;2022-10-12T14:07:53;0.33;;;0.30;;
49103;SDS011;34915;52.926;11.116;2022-10-12T14:10:33;0.73;;;0.43;;
49103;SDS011;34915;52.926;11.116;2022-10-12T14:13:00;1.27;;;0.60;;
49103;SDS011;34915;52.926;11.116;2022-10-12T14:15:38;1.53;;;0.90;;
49103;SDS011;34915;52.926;11.116;2022-10-12T14:21:10;3.30;;;1.00;;
49103;SDS011;34915;52.926;11.116;2022-10-12T14:23:54;2.20;;;0.93;;
49103;SDS011;34915;52.926;11.116;2022-10-12T14:26:31;2.73;;;1.00;;
49103;SDS011;34915;52.926;11.116;2022-10-12T14:34:48;1.23;;;0.50;;
49103;SDS011;34915;52.926;11.116;2022-10-12T14:37:21;4.83;;;1.07;;
49103;SDS011;34915;52.926;11.116;2022-10-12T14:39:53;1.07;;;0.60;;
49103;SDS011;34915;52.926;11.116;2022-10-12T14:42:31;5.87;;;0.60;;
49103;SDS011;34915;52.926;11.116;2022-10-12T14:45:00;0.37;;;0.37;;
49103;SDS011;34915;52.926;11.116;2022-10-12T14:47:29;0.90;;;0.40;;
49103;SDS011;34915;52.926;11.116;2022-10-12T14:49:59;2.27;;;0.60;;
49103;SDS011;34915;52.926;11.116;2022-10-12T14:55:09;1.17;;;0.60;;
49103;SDS011;34915;52.926;11.116;2022-10-12T14:57:42;2.73;;;0.40;;
49103;SDS011;34915;52.926;11.116;2022-10-12T15:00:14;1.90;;;0.70;;
49103;SDS011;34915;52.926;11.116;2022-10-12T15:02:41;3.27;;;0.80;;
49103;SDS011;34915;52.926;11.116;2022-10-12T15:05:11;1.33;;;0.60;;
49103;SDS011;34915;52.926;11.116;2022-10-12T15:07:40;2.30;;;0.70;;
49103;SDS011;34915;52.926;11.116;2022-10-12T15:10:07;2.40;;;0.97;;
49103;SDS011;34915;52.926;11.116;2022-10-12T15:12:36;1.07;;;0.60;;
49103;SDS011;34915;52.926;11.116;2022-10-12T15:15:19;1.90;;;0.90;;
49103;SDS011;34915;52.926;11.116;2022-10-12T15:17:51;0.97;;;0.47;;
49103;SDS011;34915;52.926;11.116;2022-10-12T15:20:17;1.43;;;0.60;;
49103;SDS011;34915;52.926;11.116;2022-10-12T15:22:46;2.97;;;0.83;;
49103;SDS011;34915;52.926;11.116;2022-10-12T15:27:42;3.40;;;1.57;;
49103;SDS011;34915;52.926;11.116;2022-10-12T15:30:11;2.77;;;1.10;;
49103;SDS011;34915;52.926;11.116;2022-10-12T15:32:37;3.17;;;1.50;;
49103;SDS011;34915;52.926;11.116;2022-10-12T15:35:16;1.60;;;0.77;;
49103;SDS011;34915;52.926;11.116;2022-10-12T15:37:47;1.00;;;0.67;;
49103;SDS011;34915;52.926;11.116;2022-10-12T15:40:13;1.57;;;0.57;;
49103;SDS011;34915;52.926;11.116;2022-10-12T15:42:45;0.97;;;0.70;;
49103;SDS011;34915;52.926;11.116;2022-10-12T15:45:19;2.43;;;0.60;;
49103;SDS011;34915;52.926;11.116;2022-10-12T15:47:47;1.53;;;0.80;;
49103;SDS011;34915;52.926;11.116;2022-10-12T15:50:17;1.30;;;1.20;;
49103;SDS011;34915;52.926;11.116;2022-10-12T15:52:48;1.60;;;0.70;;
49103;SDS011;34915;52.926;11.116;2022-10-12T15:55:21;1.13;;;0.83;;
49103;SDS011;34915;52.926;11.116;2022-10-12T15:57:52;1.30;;;0.90;;
49103;SDS011;34915;52.926;11.116;2022-10-12T16:00:22;1.57;;;0.80;;
49103;SDS011;34915;52.926;11.116;2022-10-12T16:02:56;1.87;;;1.03;;
49103;SDS011;34915;52.926;11.116;2022-10-12T16:05:26;1.33;;;1.00;;
49103;SDS011;34915;52.926;11.116;2022-10-12T16:08:00;1.43;;;1.00;;
49103;SDS011;34915;52.926;11.116;2022-10-12T16:10:27;2.47;;;1.30;;
49103;SDS011;34915;52.926;11.116;2022-10-12T16:12:55;2.10;;;0.87;;
49103;SDS011;34915;52.926;11.116;2022-10-12T16:15:23;2.23;;;1.57;;
49103;SDS011;34915;52.926;11.116;2022-10-12T16:17:59;2.10;;;1.60;;
49103;SDS011;34915;52.926;11.116;2022-10-12T16:20:27;2.23;;;1.30;;
49103;SDS011;34915;52.926;11.116;2022-10-12T16:22:55;3.93;;;1.53;;
49103;SDS011;34915;52.926;11.116;2022-10-12T16:25:22;3.43;;;1.50;;
49103;SDS011;34915;52.926;11.116;2022-10-12T16:27:52;3.33;;;1.50;;
49103;SDS011;34915;52.926;11.116;2022-10-12T16:30:22;1.83;;;1.37;;
49103;SDS011;34915;52.926;11.116;2022-10-12T16:32:52;3.23;;;1.20;;
49103;SDS011;34915;52.926;11.116;2022-10-12T16:35:17;2.17;;;1.23;;
49103;SDS011;34915;52.926;11.116;2022-10-12T16:37:43;2.57;;;1.67;;
49103;SDS011;34915;52.926;11.116;2022-10-12T16:40:09;3.53;;;1.43;;
49103;SDS011;34915;52.926;11.116;2022-10-12T16:42:35;3.27;;;1.50;;
49103;SDS011;34915;52.926;11.116;2022-10-12T16:45:04;6.07;;;1.40;;
49103;SDS011;34915;52.926;11.116;2022-10-12T16:47:30;4.57;;;1.80;;
49103;SDS011;34915;52.926;11.116;2022-10-12T16:49:58;2.93;;;1.60;;
49103;SDS011;34915;52.926;11.116;2022-10-12T16:52:27;2.93;;;1.70;;
49103;SDS011;34915;52.926;11.116;2022-10-12T16:54:53;2.13;;;1.77;;
49103;SDS011;34915;52.926;11.116;2022-10-12T16:57:20;5.57;;;1.93;;
49103;SDS011;34915;52.926;11.116;2022-10-12T16:59:47;2.33;;;1.57;;
49103;SDS011;34915;52.926;11.116;2022-10-12T17:02:14;5.27;;;1.70;;
49103;SDS011;34915;52.926;11.116;2022-10-12T17:04:44;4.37;;;1.80;;
49103;SDS011;34915;52.926;11.116;2022-10-12T17:07:10;7.67;;;3.10;;
49103;SDS011;34915;52.926;11.116;2022-10-12T17:09:39;9.57;;;4.50;;
49103;SDS011;34915;52.926;11.116;2022-10-12T17:12:07;8.80;;;4.00;;
49103;SDS011;34915;52.926;11.116;2022-10-12T17:14:36;8.27;;;3.43;;
49103;SDS011;34915;52.926;11.116;2022-10-12T17:17:05;5.97;;;2.97;;
49103;SDS011;34915;52.926;11.116;2022-10-12T17:21:56;5.00;;;2.70;;